HomeShort term forecast

Short term forecast

Graphical weather forecast for the next 48 hours for Montreal:

Short term forecast

This weather forecast is automatically refreshed every 3 hours.

Hourly Experimental Forecast for the next 48 hours ®

Overall summary: Snow (5–12 cm.) starting tomorrow morning, continuing until afternoon.

 Date & Hour   Temp   Feel   Baro   Hum   Speed & Bearing   Wind Gust   Precip.%   Precip.   Visibility   Cloud cover   Conditions 
 25/11/2020 - 01:00  -5.2°C  -9.4°C  1030.4 hPa  70%  9.5 km/h   22.1 km/h  0%  --  16.1km  88%  Overcast 
 25/11/2020 - 02:00  -4.7°C  -8.8°C  1030.4 hPa  68%  9.5 km/h   22.3 km/h  2%  0.03 mm/h  16.1km  93%  Overcast 
 25/11/2020 - 03:00  -4.4°C  -8.5°C  1029.5 hPa  67%  10.2 km/h   22.1 km/h  2%  0.01 mm/h  16.1km  97%  Overcast 
 25/11/2020 - 04:00  -4.4°C  -8.7°C  1029.6 hPa  68%  10.4 km/h   20.5 km/h  9%  0.20 mm/h  8.9km  100%  Overcast 
 25/11/2020 - 05:00  -4.5°C  -9.4°C  1028.9 hPa  72%  12.7 km/h   22.0 km/h  14%  0.36 mm/h  5.9km  100%  Overcast 
 25/11/2020 - 06:00  -4.6°C  -9.7°C  1028.1 hPa  78%  13.4 km/h   24.2 km/h  19%  0.45 mm/h  3.4km  100%  Overcast 
 25/11/2020 - 07:00  -4.4°C  -9.5°C  1027.3 hPa  82%  13.9 km/h   27.9 km/h  28%  0.94 mm/h  0.7km  100%  Snow 
 25/11/2020 - 08:00  -3.7°C  -8.8°C  1026.2 hPa  85%  14.5 km/h   30.5 km/h  34%  1.11 mm/h  0.8km  100%  Snow 
 25/11/2020 - 09:00  -2.5°C  -7.5°C  1025.2 hPa  86%  15.0 km/h   34.4 km/h  39%  1.22 mm/h  1.9km  100%  Snow 
 25/11/2020 - 10:00  -1.3°C  -6.0°C  1024.2 hPa  87%  14.8 km/h   33.8 km/h  46%  1.40 mm/h  3.0km  100%  Snow 
 25/11/2020 - 11:00  -0.7°C  -4.8°C  1023.6 hPa  88%  13.0 km/h   30.8 km/h  42%  0.90 mm/h  7.0km  98%  Snow 
 25/11/2020 - 12:00  -0.1°C  -3.7°C  1022.9 hPa  87%  11.0 km/h   28.2 km/h  41%  0.65 mm/h  12.0km  95%  Snow 
 25/11/2020 - 13:00  0.4°C  -2.2°C  1022.1 hPa  85%  7.8 km/h   22.7 km/h  41%  0.30 mm/h  16.1km  93%  Possible Light Snow 
 25/11/2020 - 14:00  0.6°C  -2.3°C  1022.1 hPa  85%  8.6 km/h   24.9 km/h  41%  0.30 mm/h  16.1km  100%  Possible Light Snow 
 25/11/2020 - 15:00  0.6°C  -1.8°C  1022.1 hPa  86%  7.5 km/h   18.5 km/h  38%  0.22 mm/h  14.6km  100%  Possible Light Snow 
 25/11/2020 - 16:00  0.8°C  -1.4°C  1022.1 hPa  88%  6.9 km/h   13.7 km/h  29%  0.16 mm/h  12.7km  100%  Possible Drizzle 
 25/11/2020 - 17:00  1.1°C  -1.1°C  1022.2 hPa  88%  7.1 km/h   11.9 km/h  20%  0.10 mm/h  15.3km  100%  Overcast 
 25/11/2020 - 18:00  1.4°C  -1.0°C  1022.3 hPa  88%  7.7 km/h   11.7 km/h  16%  0.06 mm/h  16.1km  100%  Overcast 
 25/11/2020 - 19:00  1.5°C  -1.0°C  1022.3 hPa  87%  8.3 km/h   11.5 km/h  10%  0.04 mm/h  16.1km  100%  Overcast 
 25/11/2020 - 20:00  1.7°C  -0.9°C  1022.2 hPa  87%  8.3 km/h   11.0 km/h  9%  0.03 mm/h  16.1km  100%  Overcast 
 25/11/2020 - 21:00  1.8°C  -0.7°C  1021.9 hPa  88%  8.1 km/h   10.5 km/h  12%  0.05 mm/h  16.1km  100%  Overcast 
 25/11/2020 - 22:00  1.9°C  -0.6°C  1021.9 hPa  90%  8.1 km/h   10.4 km/h  16%  0.09 mm/h  16.1km  100%  Overcast 
 25/11/2020 - 23:00  2.0°C  -0.5°C  1021.6 hPa  91%  8.3 km/h   10.3 km/h  19%  0.13 mm/h  16.1km  100%  Overcast 
 26/11/2020 - 00:00  2.2°C  -0.4°C  1021.2 hPa  92%  8.7 km/h   10.5 km/h  21%  0.16 mm/h  16.1km  100%  Overcast 
 26/11/2020 - 01:00  2.2°C  -0.4°C  1020.8 hPa  92%  9.1 km/h   11.5 km/h  21%  0.18 mm/h  14.1km  100%  Overcast 
 26/11/2020 - 02:00  2.3°C  -0.5°C  1020.3 hPa  92%  9.7 km/h   14.4 km/h  28%  0.21 mm/h  12.6km  100%  Possible Drizzle 
 26/11/2020 - 03:00  2.3°C  -0.6°C  1019.7 hPa  93%  10.4 km/h   18.1 km/h  49%  0.37 mm/h  10.5km  100%  Possible Light Rain 
 26/11/2020 - 04:00  2.3°C  -0.8°C  1019.2 hPa  94%  11.0 km/h   20.8 km/h  59%  0.55 mm/h  8.4km  100%  Possible Light Rain 
 26/11/2020 - 05:00  2.1°C  -1.2°C  1018.9 hPa  96%  11.6 km/h   21.6 km/h  57%  0.53 mm/h  6.1km  100%  Possible Light Rain 
 26/11/2020 - 06:00  1.8°C  -1.7°C  1018.5 hPa  96%  12.1 km/h   21.5 km/h  57%  0.46 mm/h  3.6km  100%  Possible Light Rain 
 26/11/2020 - 07:00  1.7°C  -1.8°C  1018.2 hPa  96%  12.3 km/h   21.0 km/h  55%  0.41 mm/h  1.7km  100%  Possible Light Rain 
 26/11/2020 - 08:00  1.9°C  -1.5°C  1017.9 hPa  94%  11.9 km/h   20.6 km/h  51%  0.30 mm/h  1.0km  100%  Possible Light Rain 
 26/11/2020 - 09:00  2.0°C  -1.2°C  1017.8 hPa  94%  11.2 km/h   19.8 km/h  47%  0.18 mm/h  1.0km  100%  Possible Drizzle 
 26/11/2020 - 10:00  2.2°C  -0.8°C  1017.4 hPa  94%  10.7 km/h   18.9 km/h  40%  0.10 mm/h  1.0km  100%  Possible Drizzle 
 26/11/2020 - 11:00  2.4°C  -0.6°C  1016.7 hPa  93%  10.6 km/h   17.8 km/h  26%  0.04 mm/h  0.9km  100%  Possible Drizzle 
 26/11/2020 - 12:00  2.7°C  -0.2°C  1015.9 hPa  92%  10.7 km/h   16.6 km/h  16%  0.01 mm/h  0.9km  100%  Foggy 
 26/11/2020 - 13:00  3.1°C  0.3°C  1015.0 hPa  93%  10.7 km/h   15.4 km/h  0%  --  0.9km  100%  Foggy 
 26/11/2020 - 14:00  3.3°C  0.5°C  1014.6 hPa  93%  10.6 km/h   14.3 km/h  0%  --  1.0km  100%  Foggy 
 26/11/2020 - 15:00  3.2°C  0.5°C  1014.9 hPa  94%  10.3 km/h   13.3 km/h  14%  0.01 mm/h  1.3km  99%  Foggy 
 26/11/2020 - 16:00  3.2°C  0.5°C  1015.0 hPa  94%  9.8 km/h   12.2 km/h  16%  0.03 mm/h  1.5km  99%  Foggy 
 26/11/2020 - 17:00  3.3°C  0.9°C  1015.0 hPa  94%  9.2 km/h   11.0 km/h  20%  0.05 mm/h  1.6km  99%  Foggy 
 26/11/2020 - 18:00  3.5°C  1.2°C  1015.3 hPa  94%  8.5 km/h   9.9 km/h  29%  0.12 mm/h  1.5km  100%  Possible Drizzle 
 26/11/2020 - 19:00  3.5°C  1.5°C  1015.5 hPa  94%  7.7 km/h   8.8 km/h  37%  0.16 mm/h  1.5km  100%  Possible Drizzle 
 26/11/2020 - 20:00  3.6°C  1.9°C  1015.5 hPa  96%  6.7 km/h   8.1 km/h  27%  0.09 mm/h  1.2km  99%  Possible Drizzle 
 26/11/2020 - 21:00  3.7°C  2.4°C  1015.2 hPa  98%  5.6 km/h   7.6 km/h  10%  0.03 mm/h  0.9km  99%  Foggy 
 26/11/2020 - 22:00  3.8°C  2.7°C  1015.0 hPa  100%  5.2 km/h   7.0 km/h  10%  0.02 mm/h  1.5km  99%  Foggy 
 26/11/2020 - 23:00  4.1°C  2.7°C  1015.0 hPa  100%  5.9 km/h   6.1 km/h  10%  0.02 mm/h  3.9km  99%  Overcast 
 27/11/2020 - 00:00  4.4°C  2.7°C  1014.8 hPa  98%  7.2 km/h   7.3 km/h  11%  0.02 mm/h  7.3km  99%  Overcast 

 

Past weather and reports

Past weatherFind in this section the past weather conditions, weather archive, graphics, reports and statistics.

Current conditions

Current weather condition for MontrealAll you need to know about the current weather conditions for Montreal. Weather data is updated every 10 minutes.

Weather forecast

Current Montreal weatherSince 2004, celinium.com website has provided accurate weather forecast for Montreal's island.